West Lancaster, Pennsylvania
Current Conditions -  °F | °C
As of 9:53 PM on Wednesday 22 Oct 2014 (Local Time) from KLNS Reporting Station
Overcast Overcast  
Wind Chill: 51°   Ceiling: 5000
Heat Index: 51°   Visibility: 10mi
Dew Point: 44°   Wind: 13mph
Humidity: 77%   Direction: 320°NW
Pressure: 29.92"   Gusts: NA
Location:  40.0115°N, 76.3553°W
Report Text: KLNS 230153Z 32011KT 10SM SCT032 OVC050 11/07 A2992 RMK AO2 RAB0055E40 SLP133 P0000 T01060067
Loading
Personal Weather Stations






























Interactive Weather Map
Tropical Storm Tracking
New forecast layout! Learn more

10-Day Weather Forecast

Advertisements
Track Severe Weather on mobile